createdAt,value
2017-06-03T00:02:00.811Z,9.48
2017-06-03T00:04:28.325Z,10.82
2017-06-03T00:06:55.899Z,10.60
2017-06-03T00:09:23.427Z,11.02
2017-06-03T00:11:51.710Z,11.84
2017-06-03T00:14:19.291Z,14.54
2017-06-03T00:16:46.819Z,14.52
2017-06-03T00:19:14.375Z,13.92
2017-06-03T00:21:42.725Z,14.30
2017-06-03T00:24:10.269Z,15.32
2017-06-03T00:26:38.568Z,16.20
2017-06-03T00:29:06.151Z,15.92
2017-06-03T00:31:34.469Z,17.36
2017-06-03T00:34:01.991Z,16.38
2017-06-03T00:36:29.559Z,17.26
2017-06-03T00:38:57.083Z,16.48
2017-06-03T00:41:25.373Z,16.24
2017-06-03T00:43:52.939Z,17.42
2017-06-03T00:46:20.464Z,16.44
2017-06-03T00:48:48.035Z,16.78
2017-06-03T00:51:16.328Z,16.70
2017-06-03T00:53:43.867Z,15.00
2017-06-03T00:56:11.439Z,13.54
2017-06-03T00:58:38.983Z,14.88
2017-06-03T01:01:07.339Z,15.12
2017-06-03T01:03:34.863Z,16.38
2017-06-03T01:06:02.403Z,13.42
2017-06-03T01:08:29.971Z,15.68
2017-06-03T01:10:58.255Z,16.18
2017-06-03T01:13:25.775Z,14.56
2017-06-03T01:15:53.343Z,15.30
2017-06-03T01:18:20.877Z,15.30
2017-06-03T01:20:49.225Z,14.14
2017-06-03T01:23:17.527Z,17.20
2017-06-03T01:25:45.052Z,15.32
2017-06-03T01:28:12.681Z,15.66
2017-06-03T01:30:41.027Z,15.14
2017-06-03T01:33:08.578Z,13.60
2017-06-03T01:35:36.107Z,14.62
2017-06-03T01:38:03.688Z,15.96
2017-06-03T01:40:31.991Z,15.00
2017-06-03T01:42:59.525Z,14.78
2017-06-03T01:45:27.108Z,16.58
2017-06-03T01:47:55.402Z,16.36
2017-06-03T01:50:23.715Z,17.24
2017-06-03T01:52:51.299Z,18.08
2017-06-03T01:55:18.825Z,16.40
2017-06-03T01:57:46.354Z,15.28
2017-06-03T02:00:14.704Z,18.02
2017-06-03T02:02:42.244Z,16.66
2017-06-03T02:05:09.774Z,17.68
2017-06-03T02:07:37.364Z,16.48
2017-06-03T02:10:05.650Z,16.90
2017-06-03T02:12:33.187Z,16.42
2017-06-03T02:15:00.741Z,18.32
2017-06-03T02:17:29.037Z,16.08
2017-06-03T02:19:57.376Z,18.10
2017-06-03T02:22:24.904Z,18.68
2017-06-03T02:24:52.428Z,18.42
2017-06-03T02:27:20.021Z,16.30
2017-06-03T02:29:48.318Z,17.00
2017-06-03T02:32:15.852Z,16.38
2017-06-03T02:34:43.432Z,16.06
2017-06-03T02:37:10.966Z,17.66
2017-06-03T02:39:38.518Z,17.26
2017-06-03T02:42:06.881Z,16.84
2017-06-03T02:44:34.391Z,17.36
2017-06-03T02:47:01.914Z,17.94
2017-06-03T02:49:29.517Z,17.20
2017-06-03T02:51:57.814Z,15.68
2017-06-03T02:54:25.357Z,18.46
2017-06-03T02:56:53.741Z,16.52
2017-06-03T02:59:21.283Z,18.12
2017-06-03T03:01:49.577Z,17.88
2017-06-03T03:04:17.924Z,17.26
2017-06-03T03:06:45.438Z,17.14
2017-06-03T03:09:12.983Z,17.14
2017-06-03T03:11:41.319Z,16.36
2017-06-03T03:14:08.853Z,17.04
2017-06-03T03:16:36.376Z,16.72
2017-06-03T03:19:03.964Z,16.88
2017-06-03T03:21:32.264Z,17.90
2017-06-03T03:23:59.796Z,17.64
2017-06-03T03:26:27.378Z,16.76
2017-06-03T03:28:55.658Z,18.20
2017-06-03T03:31:23.937Z,18.38
2017-06-03T03:33:51.522Z,20.76
2017-06-03T03:36:19.070Z,18.22
2017-06-03T03:38:46.589Z,17.48
2017-06-03T03:41:14.919Z,17.58
2017-06-03T03:43:42.503Z,16.86
2017-06-03T03:46:10.063Z,17.80
2017-06-03T03:48:37.585Z,19.32
2017-06-03T03:51:05.920Z,18.58
2017-06-03T03:53:33.433Z,18.48
2017-06-03T03:56:01.710Z,19.74
2017-06-03T03:58:29.275Z,19.04
2017-06-03T04:00:57.569Z,19.70
2017-06-03T04:03:25.132Z,21.06
2017-06-03T04:05:52.671Z,20.20
2017-06-03T04:08:20.194Z,19.24
2017-06-03T04:10:48.532Z,20.22
2017-06-03T04:13:16.064Z,19.28
2017-06-03T04:15:43.631Z,18.62
2017-06-03T04:18:11.929Z,20.42
2017-06-03T04:20:40.215Z,21.06
2017-06-03T04:23:07.810Z,22.74
2017-06-03T04:25:35.360Z,21.56
2017-06-03T04:28:02.886Z,20.92
2017-06-03T04:30:31.222Z,21.52
2017-06-03T04:32:58.736Z,21.86
2017-06-03T04:35:26.250Z,23.72
2017-06-03T04:37:53.809Z,22.38
2017-06-03T04:40:22.128Z,20.92
2017-06-03T04:42:49.683Z,21.92
2017-06-03T04:45:17.225Z,21.88
2017-06-03T04:47:44.744Z,22.58
2017-06-03T04:50:13.075Z,24.98
2017-06-03T04:52:41.379Z,26.46
2017-06-03T04:55:08.969Z,25.92
2017-06-03T04:57:36.504Z,27.46
2017-06-03T05:00:04.822Z,26.58
2017-06-03T05:02:32.361Z,27.94
2017-06-03T05:04:59.962Z,24.78
2017-06-03T05:07:27.496Z,25.96
2017-06-03T05:09:55.806Z,26.72
2017-06-03T05:12:23.399Z,25.26
2017-06-03T05:14:50.937Z,27.18
2017-06-03T05:17:19.237Z,27.14
2017-06-03T05:19:47.567Z,26.12
2017-06-03T05:22:15.850Z,27.94
2017-06-03T05:24:43.395Z,27.20
2017-06-03T05:27:10.989Z,24.74
2017-06-03T05:29:38.537Z,24.30
2017-06-03T05:32:06.828Z,25.86
2017-06-03T05:34:34.400Z,27.58
2017-06-03T05:37:01.930Z,26.38
2017-06-03T05:39:29.490Z,26.18
2017-06-03T05:41:57.825Z,26.16
2017-06-03T05:44:25.383Z,26.70
2017-06-03T05:46:52.893Z,25.68
2017-06-03T05:49:20.451Z,25.78
2017-06-03T05:51:48.764Z,26.96
2017-06-03T05:54:16.296Z,26.14
2017-06-03T05:56:43.859Z,26.90
2017-06-03T05:59:12.151Z,24.48
2017-06-03T06:01:40.503Z,25.76
2017-06-03T06:04:08.789Z,26.04
2017-06-03T06:06:36.309Z,23.36
2017-06-03T06:09:04.643Z,23.86
2017-06-03T06:11:32.941Z,26.08
2017-06-03T06:14:00.484Z,24.74
2017-06-03T06:16:28.117Z,22.94
2017-06-03T06:18:56.685Z,25.80
2017-06-03T06:21:24.992Z,23.76
2017-06-03T06:23:53.320Z,22.70
2017-06-03T06:26:20.855Z,20.58
2017-06-03T06:28:48.390Z,22.60
2017-06-03T06:31:16.735Z,21.72
2017-06-03T06:33:45.047Z,22.16
2017-06-03T06:36:12.603Z,22.18
2017-06-03T06:38:40.150Z,23.72
2017-06-03T06:41:08.458Z,23.98
2017-06-03T06:43:36.812Z,19.72
2017-06-03T06:46:04.332Z,19.82
2017-06-03T06:48:31.887Z,19.36
2017-06-03T06:51:00.229Z,18.78
2017-06-03T06:53:32.387Z,20.62
2017-06-03T06:56:00.409Z,19.26
2017-06-03T06:58:27.956Z,19.86
2017-06-03T07:00:56.257Z,18.00
2017-06-03T07:03:23.825Z,17.34
2017-06-03T07:05:51.351Z,19.06
2017-06-03T07:08:18.903Z,16.76
2017-06-03T07:10:47.230Z,17.14
2017-06-03T07:13:14.753Z,18.62
2017-06-03T07:15:42.284Z,18.56
2017-06-03T07:18:09.877Z,16.50
2017-06-03T07:20:38.172Z,18.38
2017-06-03T07:23:05.694Z,18.14
2017-06-03T07:25:33.257Z,18.70
2017-06-03T07:28:00.825Z,16.10
2017-06-03T07:30:29.131Z,17.40
2017-06-03T07:32:56.703Z,18.74
2017-06-03T07:35:24.235Z,17.98
2017-06-03T07:37:51.748Z,15.72
2017-06-03T07:40:20.077Z,15.72
2017-06-03T07:42:47.630Z,16.06
2017-06-03T07:45:15.932Z,17.80
2017-06-03T07:47:43.492Z,14.64
2017-06-03T07:50:11.796Z,15.84
2017-06-03T07:52:39.327Z,16.80
2017-06-03T07:55:07.687Z,26.88
2017-06-03T07:57:35.239Z,14.12
2017-06-03T08:00:03.553Z,16.04
2017-06-03T08:02:31.149Z,17.42
2017-06-03T08:04:58.742Z,14.92
2017-06-03T08:07:26.267Z,14.00
2017-06-03T08:09:54.549Z,14.76
2017-06-03T08:12:22.875Z,16.20
2017-06-03T08:14:50.392Z,16.08
2017-06-03T08:17:17.970Z,14.82
2017-06-03T08:19:45.476Z,14.40
2017-06-03T08:22:13.764Z,15.26
2017-06-03T08:24:41.314Z,16.82
2017-06-03T08:27:08.832Z,15.58
2017-06-03T08:29:36.386Z,14.46
2017-06-03T08:32:04.683Z,14.74
2017-06-03T08:34:32.201Z,14.44
2017-06-03T08:36:59.791Z,12.40
2017-06-03T08:39:27.296Z,15.10
2017-06-03T08:41:55.602Z,13.54
2017-06-03T08:44:23.191Z,12.60
2017-06-03T08:46:50.722Z,14.62
2017-06-03T08:49:19.014Z,13.78
2017-06-03T08:51:47.350Z,14.80
2017-06-03T08:54:15.630Z,14.48
2017-06-03T08:56:43.905Z,15.24
2017-06-03T08:59:11.514Z,13.68
2017-06-03T09:01:39.894Z,14.96
2017-06-03T09:04:07.414Z,15.68
2017-06-03T09:06:36.625Z,17.22
2017-06-03T09:09:04.194Z,16.10
2017-06-03T09:11:32.558Z,16.18
2017-06-03T09:14:00.113Z,11.66
2017-06-03T09:16:27.639Z,16.24
2017-06-03T09:18:55.211Z,14.28
2017-06-03T09:21:23.514Z,15.68
2017-06-03T09:23:51.848Z,13.78
2017-06-03T09:26:19.435Z,14.00
2017-06-03T09:28:46.953Z,17.32
2017-06-03T09:31:15.260Z,14.10
2017-06-03T09:33:42.857Z,14.04
2017-06-03T09:36:10.428Z,14.30
2017-06-03T09:38:37.958Z,11.88
2017-06-03T09:41:06.312Z,14.08
2017-06-03T09:43:33.836Z,15.76
2017-06-03T09:46:02.129Z,16.86
2017-06-03T09:48:30.464Z,13.18
2017-06-03T09:50:58.759Z,15.12
2017-06-03T09:53:26.295Z,13.70
2017-06-03T09:55:54.467Z,13.44
2017-06-03T09:58:22.013Z,15.90
2017-06-03T10:00:50.324Z,14.20
2017-06-03T10:03:17.900Z,13.02
2017-06-03T10:05:45.442Z,14.68
2017-06-03T10:08:12.953Z,14.24
2017-06-03T10:10:41.289Z,13.70
2017-06-03T10:13:08.825Z,14.02
2017-06-03T10:15:36.355Z,14.26
2017-06-03T10:18:03.927Z,14.56
2017-06-03T10:20:32.256Z,14.98
2017-06-03T10:22:59.804Z,14.60
2017-06-03T10:25:28.172Z,13.76
2017-06-03T10:27:55.724Z,13.52
2017-06-03T10:30:24.024Z,13.10
2017-06-03T10:32:51.581Z,11.22
2017-06-03T10:35:25.005Z,12.66
2017-06-03T10:37:52.585Z,13.00
2017-06-03T10:40:20.889Z,14.72
2017-06-03T10:42:48.423Z,12.32
2017-06-03T10:45:16.012Z,11.80
2017-06-03T10:47:43.568Z,9.42
2017-06-03T10:50:11.901Z,10.48
2017-06-03T10:52:39.429Z,10.08
2017-06-03T10:55:06.959Z,8.32
2017-06-03T10:57:34.520Z,10.60
2017-06-03T11:00:02.824Z,10.22
2017-06-03T11:02:30.366Z,10.80
2017-06-03T11:04:58.716Z,10.00
2017-06-03T11:07:26.280Z,6.56
2017-06-03T11:09:54.572Z,6.04
2017-06-03T11:12:22.119Z,8.70
2017-06-03T11:14:49.665Z,7.50
2017-06-03T11:17:17.193Z,7.24
2017-06-03T11:19:45.287Z,6.54
2017-06-03T11:22:13.628Z,6.48
2017-06-03T11:24:41.175Z,6.22
2017-06-03T11:27:08.709Z,7.36
2017-06-03T11:29:36.293Z,8.16
2017-06-03T11:32:04.597Z,9.38
2017-06-03T11:34:32.892Z,9.00
2017-06-03T11:37:00.450Z,8.58
2017-06-03T11:39:28.002Z,7.62
2017-06-03T11:41:56.295Z,7.80
2017-06-03T11:44:23.899Z,8.84
2017-06-03T11:46:51.437Z,9.02
2017-06-03T11:49:18.968Z,8.96
2017-06-03T11:51:47.327Z,8.26
2017-06-03T11:54:14.850Z,8.72
2017-06-03T11:56:42.398Z,11.12
2017-06-03T11:59:10.752Z,11.02
2017-06-03T12:01:39.064Z,8.80
2017-06-03T12:04:06.581Z,8.44
2017-06-03T12:06:34.177Z,10.02
2017-06-03T12:09:01.710Z,9.76
2017-06-03T12:11:30.008Z,7.90
2017-06-03T12:13:58.370Z,9.40
2017-06-03T12:16:26.684Z,9.50
2017-06-03T12:18:54.193Z,9.44
2017-06-03T12:21:22.492Z,8.52
2017-06-03T12:23:50.075Z,8.72
2017-06-03T12:26:18.393Z,10.46
2017-06-03T12:28:45.946Z,10.24
2017-06-03T12:31:14.297Z,9.60
2017-06-03T12:33:41.827Z,10.30
2017-06-03T12:36:10.141Z,10.18
2017-06-03T12:38:37.707Z,9.52
2017-06-03T12:41:05.998Z,9.78
2017-06-03T12:43:33.605Z,9.80
2017-06-03T12:46:01.144Z,11.12
2017-06-03T12:48:28.681Z,11.10
2017-06-03T12:50:57.003Z,8.86
2017-06-03T12:53:24.532Z,9.62
2017-06-03T12:55:52.065Z,10.90
2017-06-03T12:58:19.653Z,5.34
2017-06-03T13:00:47.972Z,4.44
2017-06-03T13:03:15.490Z,4.50
2017-06-03T13:05:43.074Z,4.28
2017-06-03T13:08:11.369Z,4.54
2017-06-03T13:10:39.651Z,5.14
2017-06-03T13:13:07.268Z,5.16
2017-06-03T13:15:34.837Z,5.10
2017-06-03T13:18:02.425Z,5.12
2017-06-03T13:20:30.920Z,4.46
2017-06-03T13:23:02.093Z,4.50
2017-06-03T13:30:59.140Z,3.90
2017-06-03T13:33:56.481Z,3.68
2017-06-03T13:36:45.121Z,3.72
2017-06-03T13:42:22.617Z,4.04
2017-06-03T13:47:45.424Z,4.38
2017-06-03T13:50:13.948Z,3.62
2017-06-03T13:52:44.135Z,3.96
2017-06-03T13:55:11.814Z,3.48
2017-06-03T13:57:41.221Z,3.52
2017-06-03T14:00:34.353Z,4.52
2017-06-03T14:03:06.053Z,4.48
2017-06-03T14:05:36.380Z,4.60
2017-06-03T14:08:04.235Z,5.08
2017-06-03T14:10:32.587Z,5.52
2017-06-03T14:13:00.211Z,5.12
2017-06-03T14:15:27.775Z,6.32
2017-06-03T14:17:55.312Z,4.62
2017-06-03T14:20:23.675Z,5.64
2017-06-03T14:22:51.223Z,5.24
2017-06-03T14:25:18.782Z,5.70
2017-06-03T14:27:46.406Z,6.56
2017-06-03T14:30:14.736Z,6.74
2017-06-03T14:32:42.275Z,7.34
2017-06-03T14:35:09.850Z,8.84
2017-06-03T14:37:37.369Z,10.10
2017-06-03T14:40:05.679Z,12.28
2017-06-03T14:42:33.278Z,10.06
2017-06-03T14:45:01.579Z,11.60
2017-06-03T14:47:29.127Z,13.10
2017-06-03T14:49:57.487Z,12.76
2017-06-03T14:52:25.807Z,13.98
2017-06-03T14:54:53.341Z,13.80
2017-06-03T14:57:20.917Z,15.88
2017-06-03T14:59:49.213Z,16.68
2017-06-03T15:02:16.757Z,18.56
2017-06-03T15:04:44.351Z,17.60
2017-06-03T15:07:11.885Z,18.62
2017-06-03T15:09:39.439Z,19.80
2017-06-03T15:12:07.752Z,18.46
2017-06-03T15:14:35.291Z,18.14
2017-06-03T15:17:02.821Z,18.58
2017-06-03T15:19:30.389Z,17.90
2017-06-03T15:21:58.708Z,18.70
2017-06-03T15:24:26.233Z,18.38
2017-06-03T15:26:53.819Z,19.94
2017-06-03T15:29:21.368Z,19.22
2017-06-03T15:31:49.680Z,21.74
2017-06-03T15:34:17.285Z,20.50
2017-06-03T15:36:44.886Z,19.92
2017-06-03T15:39:12.450Z,20.52
2017-06-03T15:41:40.843Z,17.88
2017-06-03T15:44:08.381Z,20.78
2017-06-03T15:46:35.897Z,19.12
2017-06-03T15:49:03.502Z,19.16
2017-06-03T15:51:31.818Z,20.32
2017-06-03T15:53:59.360Z,17.98
2017-06-03T15:56:27.686Z,18.42
2017-06-03T15:58:55.996Z,19.38
2017-06-03T16:01:24.294Z,15.22
2017-06-03T16:03:51.901Z,19.04
2017-06-03T16:06:19.442Z,18.72
2017-06-03T16:08:47.000Z,19.68
2017-06-03T16:11:15.361Z,17.46
2017-06-03T16:13:42.895Z,17.28
2017-06-03T16:16:10.414Z,16.80
2017-06-03T16:18:38.025Z,15.48
2017-06-03T16:21:06.326Z,15.34
2017-06-03T16:23:33.867Z,15.28
2017-06-03T16:26:01.458Z,13.16
2017-06-03T16:28:28.996Z,18.00
2017-06-03T16:30:57.326Z,18.04
2017-06-03T16:33:24.873Z,17.16
2017-06-03T16:35:53.184Z,16.28
2017-06-03T16:38:20.768Z,16.54
2017-06-03T16:40:49.097Z,17.98
2017-06-03T16:43:16.674Z,17.12
2017-06-03T16:45:44.197Z,20.74
2017-06-03T16:48:12.492Z,19.18
2017-06-03T16:50:40.830Z,20.46
2017-06-03T16:53:08.369Z,29.42
2017-06-03T16:55:35.904Z,31.36
2017-06-03T16:58:04.245Z,35.04
2017-06-03T17:00:32.533Z,37.00
2017-06-03T17:03:00.820Z,37.62
2017-06-03T17:05:29.160Z,40.86
2017-06-03T17:07:57.478Z,43.92
2017-06-03T17:10:25.759Z,44.28
2017-06-03T17:12:54.082Z,41.54
2017-06-03T17:15:22.369Z,41.64
2017-06-03T17:17:49.906Z,40.62
2017-06-03T17:20:18.249Z,40.68
2017-06-03T17:22:45.784Z,42.80
2017-06-03T17:25:13.312Z,43.68
2017-06-03T17:27:41.647Z,40.94
2017-06-03T17:30:09.941Z,39.80
2017-06-03T17:32:38.235Z,37.04
2017-06-03T17:35:06.555Z,39.14
2017-06-03T17:37:34.156Z,38.44
2017-06-03T17:40:02.491Z,37.24
2017-06-03T17:42:30.793Z,38.50
2017-06-03T17:44:59.115Z,39.58
2017-06-03T17:47:27.479Z,35.60
2017-06-03T17:49:55.762Z,37.92
2017-06-03T17:52:23.311Z,39.36
2017-06-03T17:54:50.861Z,35.96
2017-06-03T17:57:18.441Z,38.46
2017-06-03T17:59:46.719Z,35.48
2017-06-03T18:02:14.262Z,35.32
2017-06-03T18:04:41.837Z,37.58
2017-06-03T18:07:09.373Z,35.14
2017-06-03T18:09:37.663Z,37.08
2017-06-03T18:12:06.012Z,35.84
2017-06-03T18:14:34.295Z,36.10
2017-06-03T18:17:01.831Z,35.74
2017-06-03T18:19:30.140Z,36.32
2017-06-03T18:21:58.459Z,36.36
2017-06-03T18:24:32.488Z,34.00
2017-06-03T18:27:00.787Z,34.88
2017-06-03T18:29:28.353Z,35.10
2017-06-03T18:31:56.673Z,32.26
2017-06-03T18:34:24.244Z,30.80
2017-06-03T18:36:52.562Z,32.16
2017-06-03T18:39:20.840Z,31.26
2017-06-03T18:41:49.189Z,34.38
2017-06-03T18:44:17.486Z,33.30
2017-06-03T18:46:45.792Z,32.14
2017-06-03T18:49:13.375Z,34.38
2017-06-03T18:51:41.683Z,34.04
2017-06-03T18:54:09.993Z,33.04
2017-06-03T18:56:37.591Z,30.40
2017-06-03T18:59:05.136Z,29.36
2017-06-03T19:01:33.448Z,31.72
2017-06-03T19:04:01.026Z,29.32
2017-06-03T19:06:28.577Z,31.46
2017-06-03T19:08:56.124Z,30.12
2017-06-03T19:11:24.450Z,27.92
2017-06-03T19:13:52.010Z,28.70
2017-06-03T19:16:19.594Z,27.74
2017-06-03T19:18:47.888Z,28.16
2017-06-03T19:21:16.186Z,24.22
2017-06-03T19:23:43.798Z,23.16
2017-06-03T19:26:11.320Z,25.80
2017-06-03T19:28:38.840Z,26.70
2017-06-03T19:31:07.164Z,23.16
2017-06-03T19:33:35.467Z,23.74
2017-06-03T19:36:03.004Z,24.32
2017-06-03T19:38:31.355Z,24.04
2017-06-03T19:40:59.644Z,24.40
2017-06-03T19:43:27.144Z,24.24
2017-06-03T19:45:55.475Z,22.70
2017-06-03T19:48:22.995Z,23.02
2017-06-03T19:50:51.295Z,23.20
2017-06-03T19:53:19.651Z,23.36
2017-06-03T19:55:47.209Z,22.96
2017-06-03T19:58:14.750Z,22.30
2017-06-03T20:00:43.076Z,21.46
2017-06-03T20:03:10.592Z,22.54
2017-06-03T20:05:38.127Z,21.86
2017-06-03T20:08:05.723Z,21.34
2017-06-03T20:10:34.007Z,21.36
2017-06-03T20:13:01.550Z,20.52
2017-06-03T20:15:29.864Z,18.66
2017-06-03T20:17:57.399Z,19.82
2017-06-03T20:20:25.680Z,19.96
2017-06-03T20:22:53.207Z,20.80
2017-06-03T20:25:20.721Z,20.70
2017-06-03T20:27:49.040Z,20.40
2017-06-03T20:30:17.332Z,19.92
2017-06-03T20:32:45.675Z,20.62
2017-06-03T20:35:13.968Z,20.78
2017-06-03T20:37:42.247Z,20.72
2017-06-03T20:40:10.582Z,22.78
2017-06-03T20:42:38.101Z,21.92
2017-06-03T20:45:05.609Z,23.28
2017-06-03T20:47:33.933Z,22.44
2017-06-03T20:50:02.217Z,23.60
2017-06-03T20:52:30.501Z,24.66
2017-06-03T20:54:58.055Z,23.32
2017-06-03T20:57:25.577Z,23.48
2017-06-03T20:59:53.887Z,22.74
2017-06-03T21:02:21.460Z,24.20
2017-06-03T21:04:48.989Z,23.92
2017-06-03T21:07:16.548Z,25.76
2017-06-03T21:09:44.108Z,23.94
2017-06-03T21:12:12.400Z,25.04
2017-06-03T21:14:39.974Z,25.52
2017-06-03T21:17:08.344Z,27.42
2017-06-03T21:19:35.860Z,26.22
2017-06-03T21:22:04.199Z,25.26
2017-06-03T21:24:32.485Z,25.08
2017-06-03T21:27:00.084Z,26.26
2017-06-03T21:29:27.629Z,26.18
2017-06-03T21:31:55.928Z,25.22
2017-06-03T21:34:23.504Z,26.00
2017-06-03T21:36:51.033Z,27.12
2017-06-03T21:39:18.565Z,28.42
2017-06-03T21:41:46.916Z,29.16
2017-06-03T21:44:15.229Z,29.32
2017-06-03T21:46:43.564Z,27.90
2017-06-03T21:49:11.124Z,26.82
2017-06-03T21:51:39.532Z,27.92
2017-06-03T21:54:07.074Z,28.06
2017-06-03T21:56:34.703Z,27.52
2017-06-03T21:59:03.023Z,25.14
2017-06-03T22:01:31.328Z,25.80
2017-06-03T22:03:58.891Z,26.64
2017-06-03T22:06:26.432Z,28.38
2017-06-03T22:08:53.995Z,30.00
2017-06-03T22:11:22.353Z,31.10
2017-06-03T22:13:49.881Z,28.92
2017-06-03T22:16:17.417Z,30.36
2017-06-03T22:18:44.991Z,30.02
2017-06-03T22:21:13.308Z,31.68
2017-06-03T22:23:40.921Z,35.92
2017-06-03T22:26:09.220Z,30.70
2017-06-03T22:28:36.781Z,30.32
2017-06-03T22:31:05.150Z,32.02
2017-06-03T22:33:32.680Z,29.88
2017-06-03T22:36:00.247Z,27.98
2017-06-03T22:38:27.832Z,30.54
2017-06-03T22:40:56.118Z,29.70
2017-06-03T22:43:23.653Z,31.56
2017-06-03T22:45:51.230Z,31.28
2017-06-03T22:48:18.772Z,28.96
2017-06-03T22:50:47.089Z,30.74
2017-06-03T22:53:14.657Z,29.00
2017-06-03T22:55:42.207Z,27.96
2017-06-03T22:58:09.745Z,29.50
2017-06-03T23:00:38.084Z,26.70
2017-06-03T23:03:05.694Z,25.28
2017-06-03T23:05:33.240Z,25.24
2017-06-03T23:08:00.773Z,23.20
2017-06-03T23:10:29.126Z,19.90
2017-06-03T23:12:56.673Z,21.72
2017-06-03T23:15:24.223Z,23.74
2017-06-03T23:17:51.816Z,20.28
2017-06-03T23:20:20.141Z,19.98
2017-06-03T23:22:47.679Z,21.72
2017-06-03T23:25:15.256Z,20.38
2017-06-03T23:27:42.805Z,19.22
2017-06-03T23:30:11.120Z,20.12
2017-06-03T23:32:38.669Z,22.68
2017-06-03T23:35:07.064Z,20.84
2017-06-03T23:37:34.604Z,21.10
2017-06-03T23:40:02.918Z,21.60
2017-06-03T23:42:30.506Z,22.10
2017-06-03T23:44:58.815Z,20.68
2017-06-03T23:47:27.135Z,21.78
2017-06-03T23:49:55.483Z,21.98
2017-06-03T23:52:23.766Z,22.60
2017-06-03T23:54:51.338Z,21.52
2017-06-03T23:57:19.636Z,22.54
2017-06-03T23:59:47.955Z,24.54
